Time;durP1;ratioP1;P1;durP2;ratioP2;P2;SDS_P1;SDS_P2;PMS_P1;PMS_P2;Temp;Humidity;BMP_temperature;BMP_pressure;BME280_temperature;BME280_humidity;BME280_pressure;Samples;Min_cycle;Max_cycle;Signal;HPM_P1;HPM_P2
2022/11/08 00:01:30;;;;;;;10.02;2.78;;;9.20;99.90;;;8.26;100.00;97283.63;4966653;28;20047;-71
2022/11/08 00:03:10;;;;;;;10.20;3.13;;;9.10;99.90;;;7.97;100.00;97257.13;4964117;28;20066;-71
2022/11/08 00:13:56;;;;;;;11.98;3.45;;;8.70;99.90;;;7.77;100.00;97236.34;4967860;28;20069;-70
2022/11/08 00:16:23;;;;;;;10.35;3.25;;;8.70;99.90;;;7.82;100.00;97226.66;4966717;28;20051;-70
2022/11/08 00:18:50;;;;;;;11.15;2.80;;;8.70;99.90;;;7.75;100.00;97227.78;4979686;28;20549;-69
2022/11/08 00:21:17;;;;;;;9.80;3.17;;;8.60;99.90;;;7.74;100.00;97233.88;4965816;28;20074;-71
2022/11/08 00:23:44;;;;;;;12.05;2.97;;;8.60;99.90;;;7.74;100.00;97221.78;4965054;28;20065;-70
2022/11/08 00:26:11;;;;;;;6.80;2.47;;;8.60;99.90;;;7.76;100.00;97226.91;4966487;28;20528;-71
2022/11/08 00:28:37;;;;;;;7.35;2.65;;;8.60;99.90;;;7.64;100.00;97224.75;4964972;28;20066;-70
2022/11/08 00:31:05;;;;;;;13.82;3.40;;;8.50;99.90;;;7.55;100.00;97228.53;4966600;28;20047;-72
2022/11/08 00:33:32;;;;;;;11.05;2.97;;;8.40;99.90;;;7.57;100.00;97221.56;4963333;28;20070;-70
2022/11/08 00:36:01;;;;;;;11.35;3.10;;;8.30;99.90;;;7.47;100.00;97227.97;4975433;28;20616;-71
2022/11/08 00:38:28;;;;;;;13.13;3.45;;;8.30;99.90;;;7.43;100.00;97221.22;4961968;28;20065;-71
2022/11/08 00:40:55;;;;;;;10.68;3.28;;;8.20;99.90;;;7.42;100.00;97222.97;4964757;28;20043;-71
2022/11/08 00:43:22;;;;;;;9.95;3.17;;;8.10;99.90;;;7.32;100.00;97225.03;4962668;28;20058;-70
2022/11/08 00:45:49;;;;;;;11.98;3.15;;;8.10;99.90;;;7.29;100.00;97225.13;4964683;28;20066;-71
2022/11/08 00:48:15;;;;;;;11.32;2.92;;;8.10;99.90;;;7.37;100.00;97218.84;4963642;28;20046;-70
2022/11/08 00:50:43;;;;;;;10.25;4.25;;;8.10;99.90;;;7.33;100.00;97215.53;4962954;28;20054;-70
2022/11/08 00:53:10;;;;;;;15.60;3.50;;;8.00;99.90;;;7.48;100.00;97208.97;4973459;28;20058;-71
2022/11/08 00:55:36;;;;;;;10.10;3.22;;;8.10;99.90;;;7.50;100.00;97210.63;4963084;28;20051;-71
2022/11/08 00:58:03;;;;;;;15.25;3.47;;;8.10;99.90;;;7.51;100.00;97195.97;4961900;28;20366;-71
2022/11/08 01:00:30;;;;;;;7.97;2.50;;;8.20;99.90;;;7.77;100.00;97195.00;4964425;28;20061;-71
2022/11/08 01:05:43;;;;;;;7.90;1.90;;;8.30;99.90;;;7.83;100.00;97191.34;4963984;28;20062;-71
2022/11/08 01:08:11;;;;;;;9.70;3.22;;;8.30;99.90;;;7.77;100.00;97191.59;4960976;28;20047;-70
2022/11/08 01:10:43;;;;;;;8.20;2.05;;;8.40;99.90;;;7.74;100.00;97195.13;4964258;28;20489;-71
2022/11/08 01:13:10;;;;;;;12.30;2.22;;;8.40;99.90;;;7.81;100.00;97194.00;4964707;28;20057;-70
2022/11/08 01:15:40;;;;;;;5.45;1.85;;;8.50;99.90;;;7.81;100.00;97198.31;4962626;28;20453;-71
2022/11/08 01:18:10;;;;;;;5.75;1.83;;;8.50;99.90;;;7.87;100.00;97196.34;4961923;28;20054;-71
2022/11/08 01:20:39;;;;;;;15.23;4.13;;;8.50;99.90;;;7.85;100.00;97192.16;4963040;28;20062;-71
2022/11/08 01:23:07;;;;;;;13.50;2.75;;;8.50;99.90;;;7.95;100.00;97189.13;4963520;28;20053;-71
2022/11/08 01:25:40;;;;;;;11.68;3.50;;;8.60;99.90;;;7.87;100.00;97187.75;4965365;28;20051;-70
2022/11/08 01:28:08;;;;;;;15.05;3.65;;;8.60;99.90;;;7.66;100.00;97184.22;4962310;28;20051;-70
2022/11/08 01:30:37;;;;;;;12.52;4.07;;;8.60;99.90;;;7.56;100.00;97183.72;4964162;28;20058;-71
2022/11/08 01:33:05;;;;;;;14.52;4.82;;;8.50;99.90;;;7.57;100.00;97185.41;4963233;28;20046;-70
2022/11/08 01:35:34;;;;;;;12.23;3.05;;;8.50;99.90;;;7.63;100.00;97177.44;4965960;28;20042;-69
2022/11/08 01:38:03;;;;;;;7.95;2.97;;;8.50;99.90;;;7.65;100.00;97179.97;4975791;28;20058;-70
2022/11/08 01:40:31;;;;;;;6.15;2.35;;;8.50;99.90;;;7.64;100.00;97181.72;4961482;28;20073;-71
2022/11/08 01:42:58;;;;;;;7.28;2.20;;;8.40;99.90;;;7.71;100.00;97175.41;4965277;28;20070;-71
2022/11/08 01:46:08;;;;;;;6.85;1.92;;;8.40;99.90;;;7.65;100.00;97185.13;4963845;28;20062;-71
2022/11/08 01:48:42;;;;;;;4.15;1.63;;;8.30;99.90;;;7.65;100.00;97177.38;4960322;28;20051;-71
2022/11/08 01:51:13;;;;;;;5.15;1.77;;;8.20;99.90;;;7.58;100.00;97168.19;4962408;28;20051;-71
2022/11/08 01:53:40;;;;;;;9.60;2.80;;;8.20;99.90;;;7.44;100.00;97169.53;4962535;28;20421;-70
2022/11/08 01:56:09;;;;;;;5.90;2.22;;;8.10;99.90;;;7.40;100.00;97164.53;4963360;28;20055;-70
2022/11/08 01:58:37;;;;;;;6.70;2.22;;;8.00;99.90;;;7.33;100.00;97157.00;4978559;28;20056;-70
2022/11/08 02:01:04;;;;;;;9.10;2.20;;;8.00;99.90;;;7.25;100.00;97164.19;4963149;28;20540;-69
2022/11/08 02:03:33;;;;;;;23.83;13.48;;;7.90;99.90;;;7.12;100.00;97162.94;4964694;28;20101;-71
2022/11/08 02:06:02;;;;;;;16.20;7.43;;;7.80;99.90;;;7.18;100.00;97154.97;4976638;28;20047;-70
2022/11/08 02:08:43;;;;;;;8.07;3.50;;;7.80;99.90;;;7.11;100.00;97153.50;4961777;28;20051;-70
2022/11/08 02:11:13;;;;;;;9.63;2.75;;;7.80;99.90;;;6.97;100.00;97145.41;4977161;28;20047;-70
2022/11/08 02:13:40;;;;;;;10.35;3.65;;;7.70;99.90;;;7.00;100.00;97138.41;4965382;28;20113;-70
2022/11/08 02:16:14;;;;;;;15.07;7.72;;;7.70;99.90;;;6.89;100.00;97136.22;4964215;28;20153;-70
2022/11/08 02:18:43;;;;;;;21.13;12.73;;;7.60;99.90;;;6.86;100.00;97135.47;4959818;28;20054;-70
2022/11/08 02:21:36;;;;;;;13.63;6.20;;;7.60;99.90;;;6.93;100.00;97133.50;4962890;28;20413;-69
2022/11/08 02:24:09;;;;;;;13.07;5.82;;;7.60;99.90;;;6.86;100.00;97131.13;4976495;28;20058;-70
2022/11/08 02:26:37;;;;;;;9.45;5.50;;;7.60;99.90;;;6.80;100.00;97133.94;4962670;28;20135;-71
2022/11/08 02:29:26;;;;;;;8.02;3.90;;;7.50;99.90;;;6.88;100.00;97124.19;4958437;28;20168;-70
2022/11/08 02:31:54;;;;;;;8.48;4.85;;;7.50;99.90;;;6.90;100.00;97124.16;4964052;28;20055;-69
2022/11/08 02:34:34;;;;;;;9.90;2.72;;;7.50;99.90;;;7.05;100.00;97112.47;4978306;28;20496;-71
2022/11/08 02:37:03;;;;;;;5.78;2.47;;;7.60;99.90;;;7.12;100.00;97108.75;4963960;28;20070;-70
2022/11/08 02:39:31;;;;;;;5.75;2.00;;;7.60;99.90;;;6.99;100.00;97103.19;4977688;28;20093;-71
2022/11/08 02:41:59;;;;;;;13.18;6.35;;;7.60;99.90;;;7.01;100.00;97109.13;4959731;28;20169;-71
2022/11/08 02:44:26;;;;;;;13.30;5.97;;;7.60;99.90;;;6.97;100.00;97106.72;4963011;28;20077;-70
2022/11/08 02:46:53;;;;;;;17.88;7.55;;;7.60;99.90;;;6.89;100.00;97114.75;4965720;28;20057;-70
2022/11/08 02:49:20;;;;;;;43.83;26.65;;;7.60;99.90;;;6.94;100.00;97110.25;4964510;28;20043;-71
2022/11/08 02:51:47;;;;;;;40.78;24.77;;;7.60;99.90;;;6.94;100.00;97107.66;4972414;28;20496;-71
2022/11/08 02:54:14;;;;;;;109.28;67.10;;;7.60;99.90;;;7.01;100.00;97101.38;4948564;28;20051;-69
2022/11/08 02:56:41;;;;;;;63.25;34.83;;;7.60;99.90;;;7.02;100.00;97100.47;4962919;28;20043;-71
2022/11/08 02:59:07;;;;;;;35.00;22.40;;;7.60;99.90;;;7.01;100.00;97088.47;4966708;28;20599;-71
2022/11/08 03:01:34;;;;;;;12.25;6.18;;;7.50;99.90;;;7.00;100.00;97088.53;4969302;28;20058;-70
2022/11/08 03:04:01;;;;;;;11.38;2.67;;;7.50;99.90;;;6.85;100.00;97087.34;4967391;28;20131;-70
2022/11/08 03:06:28;;;;;;;6.82;1.52;;;7.50;99.90;;;6.80;100.00;97084.94;4967400;28;20046;-70
2022/11/08 03:08:55;;;;;;;7.40;2.28;;;7.40;99.90;;;6.64;100.00;97087.22;4961854;28;20050;-71
2022/11/08 03:11:22;;;;;;;9.38;2.90;;;7.40;99.90;;;6.60;100.00;97080.47;4966136;28;20046;-70
2022/11/08 03:13:49;;;;;;;55.92;27.63;;;7.40;99.90;;;6.67;100.00;97078.53;4966459;28;20401;-72
2022/11/08 03:16:15;;;;;;;159.15;63.85;;;7.30;99.90;;;6.58;100.00;97076.25;4967065;28;20062;-71
2022/11/08 03:18:42;;;;;;;97.60;38.95;;;7.40;99.90;;;6.63;100.00;97071.78;4964099;28;20059;-70
2022/11/08 03:21:10;;;;;;;108.03;44.65;;;7.40;99.90;;;6.60;100.00;97070.16;4966170;28;20291;-70
2022/11/08 03:23:36;;;;;;;447.75;204.95;;;7.40;99.90;;;6.51;100.00;97074.81;4965409;28;20065;-71
2022/11/08 03:26:04;;;;;;;152.35;81.28;;;7.40;99.90;;;6.54;100.00;97067.78;4967521;28;20055;-71
2022/11/08 03:28:31;;;;;;;11.57;3.28;;;7.40;99.90;;;6.64;100.00;97058.84;4967154;28;20047;-70
2022/11/08 03:30:58;;;;;;;6.45;1.80;;;7.40;99.90;;;6.67;100.00;97058.72;4965339;28;20066;-70
2022/11/08 03:33:25;;;;;;;5.60;1.88;;;7.40;99.90;;;6.64;100.00;97061.44;4965208;28;20058;-70
2022/11/08 03:35:52;;;;;;;7.68;1.83;;;7.30;99.90;;;6.83;100.00;97053.03;4965586;28;20054;-70
2022/11/08 03:38:20;;;;;;;4.95;1.92;;;7.40;99.90;;;6.78;100.00;97058.34;4964961;28;20058;-71
2022/11/08 03:40:46;;;;;;;7.07;2.03;;;7.50;99.90;;;6.96;100.00;97058.59;4978930;28;20134;-70
2022/11/08 03:43:14;;;;;;;10.40;2.25;;;7.50;99.90;;;7.00;100.00;97057.56;4966874;28;20058;-71
2022/11/08 03:45:41;;;;;;;5.97;1.45;;;7.60;99.90;;;6.93;100.00;97056.94;4962630;28;20435;-71
2022/11/08 03:48:08;;;;;;;10.68;2.60;;;7.60;99.90;;;6.91;100.00;97051.88;4963921;28;20085;-70
2022/11/08 03:50:35;;;;;;;8.30;1.80;;;7.60;99.90;;;6.98;100.00;97049.03;4961394;28;20102;-70
2022/11/08 03:53:02;;;;;;;4.60;1.85;;;7.60;99.90;;;7.10;100.00;97044.28;4963125;28;20105;-70
2022/11/08 03:55:29;;;;;;;7.30;2.55;;;7.60;99.90;;;7.05;100.00;97045.34;4964758;28;20089;-71
2022/11/08 03:57:56;;;;;;;8.05;2.42;;;7.60;99.90;;;7.13;100.00;97051.88;4964787;28;20165;-70
2022/11/08 04:00:27;;;;;;;9.85;2.97;;;7.70;99.90;;;7.25;100.00;97044.59;4967048;28;20055;-71
2022/11/08 04:03:01;;;;;;;8.25;2.63;;;7.80;99.90;;;7.49;100.00;97043.66;4961939;28;20393;-70
2022/11/08 04:05:31;;;;;;;8.75;2.10;;;7.90;99.90;;;7.49;100.00;97045.41;4965163;28;20039;-71
2022/11/08 04:08:00;;;;;;;8.35;2.10;;;8.10;99.90;;;7.61;100.00;97047.50;4963162;28;20106;-70
2022/11/08 04:10:27;;;;;;;8.82;2.38;;;8.20;99.90;;;7.77;100.00;97052.91;4963785;28;20050;-70
2022/11/08 04:15:39;;;;;;;10.35;2.42;;;8.40;99.90;;;7.77;100.00;97039.97;4962694;28;20061;-70
2022/11/08 04:23:37;;;;;;;3.95;1.33;;;8.40;99.90;;;7.77;100.00;97050.31;4964617;28;20086;-70
2022/11/08 04:26:07;;;;;;;4.93;1.40;;;8.40;99.90;;;7.86;100.00;97049.94;4947692;28;22004;-71
2022/11/08 04:28:36;;;;;;;3.92;1.10;;;8.40;99.90;;;7.86;100.00;97049.94;4964362;28;20078;-70
2022/11/08 04:31:22;;;;;;;5.40;1.55;;;8.30;99.90;;;7.79;100.00;97056.28;4964978;28;20525;-70
2022/11/08 04:33:49;;;;;;;8.45;3.40;;;8.30;99.90;;;7.75;100.00;97050.41;4963315;28;20406;-70
2022/11/08 04:36:16;;;;;;;6.45;1.10;;;8.30;99.90;;;7.89;100.00;97046.41;4963900;28;20046;-71
2022/11/08 04:38:48;;;;;;;3.88;1.20;;;8.30;99.90;;;7.85;100.00;97042.28;4964310;28;20066;-71
2022/11/08 04:41:18;;;;;;;4.95;1.17;;;8.40;99.90;;;7.88;100.00;97055.06;4964385;28;20051;-70
2022/11/08 04:43:45;;;;;;;4.32;1.05;;;8.30;99.90;;;7.97;100.00;97047.78;4964020;28;20059;-71
2022/11/08 04:46:25;;;;;;;4.90;0.95;;;8.40;99.90;;;8.05;100.00;97046.63;4979383;28;20147;-71
2022/11/08 04:48:58;;;;;;;3.45;0.95;;;8.50;99.90;;;8.01;100.00;97039.91;4962259;28;20046;-71
2022/11/08 04:51:28;;;;;;;3.28;0.90;;;8.60;99.90;;;8.14;100.00;97041.94;4964741;28;20067;-70
2022/11/08 04:54:00;;;;;;;5.03;1.00;;;8.60;99.90;;;8.25;100.00;97049.22;4964219;28;20061;-71
2022/11/08 04:56:29;;;;;;;3.70;0.98;;;8.70;99.90;;;8.13;100.00;97041.97;4966274;28;20055;-70
2022/11/08 04:58:58;;;;;;;4.90;1.45;;;8.70;99.90;;;8.25;100.00;97051.81;4963515;28;20085;-69
2022/11/08 05:01:29;;;;;;;7.00;1.25;;;8.70;99.90;;;8.59;100.00;97035.72;4964200;28;20055;-72
2022/11/08 05:03:57;;;;;;;4.35;0.82;;;8.80;99.90;;;8.95;100.00;97034.19;4961541;28;20450;-69
2022/11/08 05:06:28;;;;;;;4.45;1.00;;;9.10;99.90;;;8.78;100.00;97034.91;4963888;28;20054;-70
2022/11/08 05:08:57;;;;;;;3.45;1.05;;;9.20;99.90;;;8.87;100.00;97029.38;4961201;28;20067;-71
2022/11/08 05:11:27;;;;;;;2.92;0.90;;;9.30;99.90;;;8.87;100.00;97041.44;4965384;28;20054;-70
2022/11/08 05:13:55;;;;;;;2.60;0.90;;;9.30;99.90;;;8.79;100.00;97041.78;4962892;28;20513;-71
2022/11/08 05:16:26;;;;;;;3.85;1.15;;;9.30;99.90;;;8.59;100.00;97030.56;4962722;28;20054;-70
2022/11/08 05:18:53;;;;;;;4.78;0.90;;;9.20;99.90;;;8.67;100.00;97034.56;4978723;28;20109;-69
2022/11/08 05:24:11;;;;;;;3.53;0.95;;;9.10;99.90;;;8.41;100.00;97025.34;4961625;28;20066;-71
2022/11/08 05:26:41;;;;;;;3.85;1.00;;;9.00;99.90;;;8.35;100.00;97024.66;4963079;28;20636;-70
2022/11/08 05:29:09;;;;;;;5.30;0.90;;;8.90;99.90;;;8.42;100.00;97009.78;4976907;28;20058;-70
2022/11/08 05:31:36;;;;;;;5.25;1.15;;;9.00;99.90;;;8.64;100.00;97014.81;4963522;28;20417;-71
2022/11/08 05:34:04;;;;;;;3.92;0.95;;;9.00;99.90;;;8.61;100.00;97014.13;4960213;28;20043;-71
2022/11/08 05:36:30;;;;;;;4.93;1.10;;;9.00;99.90;;;8.45;100.00;97029.47;4961414;28;20063;-71
2022/11/08 05:38:58;;;;;;;3.50;1.17;;;9.00;99.90;;;8.40;100.00;97015.88;4963336;28;20055;-70
2022/11/08 05:41:25;;;;;;;4.13;1.30;;;9.00;99.90;;;8.56;100.00;97022.09;4962542;28;20296;-70
2022/11/08 05:43:54;;;;;;;5.20;1.75;;;9.00;99.90;;;8.60;100.00;97021.06;4963968;28;20066;-70
2022/11/08 05:46:23;;;;;;;5.53;1.75;;;9.10;99.90;;;8.50;100.00;97017.19;4962724;28;20523;-69
2022/11/08 05:48:50;;;;;;;4.88;1.48;;;9.00;99.90;;;8.66;100.00;97023.38;4964550;28;20076;-71
2022/11/08 05:51:18;;;;;;;4.75;1.10;;;9.10;99.90;;;8.84;100.00;97026.06;4963076;28;20204;-71
2022/11/08 05:53:47;;;;;;;4.07;1.75;;;9.20;99.90;;;8.83;100.00;97035.56;4961035;28;20047;-70
2022/11/08 05:56:15;;;;;;;3.63;1.00;;;9.30;99.90;;;8.95;100.00;97035.03;4976775;28;20050;-71
2022/11/08 05:58:42;;;;;;;3.67;1.27;;;9.40;99.90;;;8.97;100.00;97042.72;4961351;28;20097;-70
2022/11/08 06:01:14;;;;;;;7.68;1.30;;;9.40;99.90;;;9.10;100.00;97043.88;4964135;28;20043;-70
2022/11/08 06:03:41;;;;;;;3.30;1.10;;;9.60;99.90;;;8.99;100.00;97044.34;4959906;28;20051;-70
2022/11/08 06:06:15;;;;;;;4.75;1.33;;;9.70;99.90;;;9.11;100.00;97052.47;4974011;28;20098;-70
2022/11/08 06:08:43;;;;;;;6.65;1.63;;;9.60;99.90;;;9.08;100.00;97044.84;4963547;28;20105;-71
2022/11/08 06:11:20;;;;;;;4.65;1.10;;;9.60;99.90;;;9.02;100.00;97045.94;4963002;28;20660;-70
2022/11/08 06:13:47;;;;;;;3.22;1.15;;;9.60;99.90;;;8.87;100.00;97052.66;4964292;28;20137;-70
2022/11/08 06:16:16;;;;;;;3.63;1.35;;;9.60;99.90;;;8.86;100.00;97042.38;4961510;28;20050;-71
2022/11/08 06:18:43;;;;;;;3.78;1.02;;;9.60;99.90;;;9.07;100.00;97054.34;4974259;28;20062;-71
2022/11/08 06:21:16;;;;;;;3.63;1.05;;;9.60;99.90;;;9.02;100.00;97042.53;4965124;28;20054;-69
2022/11/08 06:23:44;;;;;;;3.03;0.90;;;9.70;99.90;;;9.08;100.00;97047.44;4980605;28;20065;-71
2022/11/08 06:26:11;;;;;;;3.90;1.00;;;9.70;99.90;;;9.03;100.00;97051.97;4967926;28;20058;-69
2022/11/08 06:28:38;;;;;;;3.50;0.77;;;9.70;99.90;;;9.05;100.00;97048.38;4982382;28;20046;-71
2022/11/08 06:31:05;;;;;;;4.28;1.45;;;9.70;99.90;;;8.98;100.00;97047.81;4967873;28;20070;-71
2022/11/08 06:33:32;;;;;;;3.53;1.30;;;9.70;99.90;;;9.08;100.00;97047.44;4967480;28;20058;-70
2022/11/08 06:35:59;;;;;;;4.60;1.00;;;9.70;99.90;;;9.14;100.00;97042.78;4970050;28;20058;-70
2022/11/08 06:38:27;;;;;;;7.07;1.00;;;9.70;99.90;;;9.14;100.00;97041.97;4980615;28;20125;-70
2022/11/08 06:40:53;;;;;;;2.53;0.80;;;9.70;99.90;;;9.09;100.00;97037.00;4968495;28;20062;-71
2022/11/08 06:43:20;;;;;;;2.55;0.80;;;9.80;99.90;;;9.14;100.00;97042.78;4965971;28;20046;-70
2022/11/08 06:45:48;;;;;;;2.70;1.00;;;9.80;99.90;;;9.06;100.00;97047.50;4963822;28;20078;-70
2022/11/08 06:48:15;;;;;;;3.25;0.77;;;9.80;99.90;;;9.24;100.00;97051.00;4966365;28;20062;-70
2022/11/08 06:50:42;;;;;;;3.65;1.23;;;9.80;99.90;;;9.26;100.00;97050.91;4978483;28;20050;-70
2022/11/08 06:53:13;;;;;;;6.15;1.00;;;9.90;99.90;;;9.17;100.00;97053.03;4966002;28;20438;-70
2022/11/08 06:55:40;;;;;;;4.82;1.20;;;9.80;99.90;;;9.23;100.00;97048.47;4966144;28;20062;-71
2022/11/08 06:58:09;;;;;;;5.53;1.10;;;9.90;99.90;;;9.34;100.00;97038.47;4964766;28;20058;-70
2022/11/08 07:00:35;;;;;;;3.70;1.00;;;9.90;99.90;;;9.46;100.00;97045.66;4948807;28;20153;-70
2022/11/08 07:03:03;;;;;;;7.00;0.98;;;10.00;99.90;;;9.45;100.00;97056.09;4965293;28;20162;-70
2022/11/08 07:05:32;;;;;;;3.03;0.70;;;10.10;99.90;;;9.50;100.00;97054.13;4965681;28;20101;-70
2022/11/08 07:07:59;;;;;;;3.28;0.85;;;10.10;99.90;;;9.51;100.00;97038.53;4962008;28;20061;-70
2022/11/08 07:10:30;;;;;;;3.88;0.90;;;10.20;99.90;;;9.51;100.00;97030.75;4960667;28;20054;-71
2022/11/08 07:12:59;;;;;;;2.25;0.70;;;10.20;99.90;;;9.80;100.00;97044.06;4963033;28;20073;-70
2022/11/08 07:15:26;;;;;;;3.67;0.93;;;10.30;99.90;;;9.91;100.00;97059.94;4964620;28;20054;-70
2022/11/08 07:17:53;;;;;;;4.22;0.88;;;10.50;99.90;;;9.84;100.00;97056.81;4963243;28;20130;-70
2022/11/08 07:20:21;;;;;;;4.50;0.82;;;10.50;99.90;;;9.85;100.00;97052.44;4965175;28;20063;-71
2022/11/08 07:22:48;;;;;;;4.10;0.85;;;10.50;99.90;;;9.80;100.00;97057.84;4965358;28;20387;-69
2022/11/08 07:25:15;;;;;;;3.88;0.63;;;10.50;99.90;;;9.81;100.00;97056.97;4964881;28;20409;-71
2022/11/08 07:27:41;;;;;;;2.80;1.08;;;10.60;99.90;;;9.92;100.00;97068.56;4964790;28;20054;-70
2022/11/08 07:30:09;;;;;;;2.63;1.10;;;10.60;99.90;;;9.74;100.00;97054.72;4963485;28;20066;-71
2022/11/08 07:32:36;;;;;;;2.58;0.80;;;10.50;99.90;;;9.88;100.00;97065.28;4963725;28;20086;-70
2022/11/08 07:35:03;;;;;;;2.65;0.82;;;10.50;99.90;;;9.90;100.00;97060.00;4964390;28;20042;-70
2022/11/08 07:37:31;;;;;;;2.72;0.80;;;10.50;99.90;;;9.99;100.00;97078.56;4963720;28;20062;-70
2022/11/08 07:39:58;;;;;;;2.78;0.80;;;10.60;99.90;;;10.09;100.00;97081.56;4979059;28;20432;-71
2022/11/08 07:42:25;;;;;;;2.88;0.88;;;10.70;99.90;;;10.10;100.00;97083.22;4964744;28;20057;-70
2022/11/08 07:45:12;;;;;;;1.83;0.80;;;10.70;99.90;;;10.14;100.00;97083.91;4963671;28;20117;-70
2022/11/08 07:47:39;;;;;;;3.25;0.80;;;10.80;99.90;;;10.13;100.00;97095.22;4961913;28;20066;-70
2022/11/08 07:50:07;;;;;;;2.25;0.60;;;10.80;99.90;;;9.95;100.00;97096.94;4976799;28;20376;-71
2022/11/08 07:52:34;;;;;;;2.60;0.80;;;10.70;99.90;;;10.02;100.00;97104.34;4979561;28;20047;-70
2022/11/08 07:55:01;;;;;;;2.40;0.70;;;10.70;99.90;;;10.10;100.00;97105.72;4961398;28;20065;-71
2022/11/08 07:57:28;;;;;;;4.28;0.90;;;10.70;99.90;;;10.06;100.00;97118.00;4965911;28;20105;-70
2022/11/08 07:59:54;;;;;;;2.85;0.80;;;10.80;99.90;;;10.16;100.00;97114.06;4963931;28;20055;-69
2022/11/08 08:02:22;;;;;;;3.55;0.88;;;10.90;99.90;;;10.18;100.00;97114.00;4964878;28;20054;-71
2022/11/08 08:04:49;;;;;;;2.63;1.00;;;10.90;99.90;;;10.33;100.00;97113.28;4964516;28;20154;-71
2022/11/08 08:07:16;;;;;;;3.08;0.88;;;11.00;99.90;;;10.40;100.00;97118.97;4964045;28;20416;-69
2022/11/08 08:09:43;;;;;;;5.25;0.75;;;11.00;99.90;;;10.41;100.00;97124.09;4962436;28;20101;-69
2022/11/08 08:12:10;;;;;;;3.30;1.02;;;11.10;99.90;;;10.50;100.00;97132.38;4963498;28;20157;-70
2022/11/08 08:14:37;;;;;;;2.00;0.68;;;11.20;99.90;;;10.52;100.00;97122.75;4964811;28;20460;-70
2022/11/08 08:17:04;;;;;;;3.72;0.80;;;11.20;99.90;;;10.60;100.00;97123.19;4964269;28;20070;-70
2022/11/08 08:19:31;;;;;;;1.95;0.90;;;11.30;99.90;;;10.57;100.00;97124.19;4965228;28;20153;-70
2022/11/08 08:21:57;;;;;;;2.95;0.80;;;11.30;99.90;;;10.53;100.00;97119.22;4963136;28;20120;-71
2022/11/08 08:24:25;;;;;;;3.17;0.80;;;11.30;99.90;;;10.56;100.00;97127.72;4961603;28;20486;-71
2022/11/08 08:26:52;;;;;;;4.00;0.88;;;11.30;99.90;;;10.63;100.00;97110.91;4979264;28;20051;-71
2022/11/08 08:29:19;;;;;;;2.40;0.70;;;11.40;99.90;;;10.67;100.00;97116.78;4961865;28;20389;-70
2022/11/08 08:31:46;;;;;;;3.78;1.00;;;11.40;99.90;;;10.68;100.00;97121.06;4963332;28;20058;-71
2022/11/08 08:34:14;;;;;;;3.92;0.88;;;11.40;99.90;;;10.75;100.00;97129.38;4964284;28;20146;-70
2022/11/08 08:36:41;;;;;;;2.80;0.85;;;11.50;99.90;;;10.79;100.00;97126.56;4965156;28;20051;-72
2022/11/08 08:39:08;;;;;;;2.00;0.70;;;11.50;99.90;;;10.97;100.00;97129.97;4964814;28;20062;-71
2022/11/08 08:41:35;;;;;;;3.63;0.90;;;11.60;99.90;;;10.85;100.00;97136.59;4964480;28;20043;-70
2022/11/08 08:44:02;;;;;;;1.85;0.70;;;11.60;99.90;;;11.02;100.00;97127.97;4959858;28;20204;-71
2022/11/08 08:46:29;;;;;;;3.30;0.73;;;11.70;99.90;;;10.96;100.00;97127.44;4962966;28;20077;-70
2022/11/08 08:48:56;;;;;;;2.25;0.80;;;11.80;99.90;;;10.94;100.00;97122.31;4961054;28;20054;-71
2022/11/08 08:51:23;;;;;;;1.92;0.80;;;11.80;99.90;;;10.93;100.00;97128.44;4963990;28;20047;-71
2022/11/08 08:53:49;;;;;;;4.22;0.90;;;11.80;99.90;;;10.98;100.00;97126.44;4963380;28;20046;-71
2022/11/08 08:56:16;;;;;;;3.58;0.80;;;11.80;99.90;;;11.19;100.00;97129.69;4965597;28;20055;-71
2022/11/08 08:58:43;;;;;;;3.58;0.95;;;11.80;99.90;;;11.18;100.00;97133.22;4960858;28;20043;-70
2022/11/08 09:01:11;;;;;;;2.08;0.80;;;11.90;99.90;;;11.30;100.00;97132.56;4963647;28;20094;-69
2022/11/08 09:03:58;;;;;;;3.78;0.88;;;12.00;99.90;;;11.35;100.00;97127.13;4961273;28;20058;-71
2022/11/08 09:06:25;;;;;;;2.15;0.90;;;12.00;99.90;;;11.29;100.00;97128.28;4963397;28;20114;-71
2022/11/08 09:08:52;;;;;;;2.58;0.90;;;12.00;99.90;;;11.44;100.00;97131.00;4960581;28;20077;-70
2022/11/08 09:11:19;;;;;;;1.83;0.75;;;12.10;99.90;;;11.47;100.00;97136.03;4964205;28;20531;-71
2022/11/08 09:13:46;;;;;;;4.18;0.80;;;12.10;99.90;;;11.54;100.00;97139.13;4979038;28;20076;-71
2022/11/08 09:16:13;;;;;;;2.08;0.90;;;12.20;99.90;;;11.61;100.00;97140.47;4963387;28;20050;-71
2022/11/08 09:18:41;;;;;;;2.95;0.68;;;12.30;99.90;;;11.72;100.00;97143.34;4961057;28;20070;-71
2022/11/08 09:21:08;;;;;;;2.13;1.00;;;12.30;99.90;;;11.92;100.00;97145.72;4959915;28;20062;-69
2022/11/08 09:23:34;;;;;;;2.15;0.80;;;12.60;99.90;;;11.95;100.00;97155.16;4960961;28;20077;-70
2022/11/08 09:26:04;;;;;;;5.60;1.10;;;12.70;99.90;;;11.98;100.00;97135.94;4976877;28;20051;-71
2022/11/08 09:28:34;;;;;;;1.40;0.60;;;12.70;99.90;;;12.18;100.00;97153.00;4965127;28;20061;-71
2022/11/08 09:31:11;;;;;;;5.28;1.00;;;12.90;99.90;;;12.24;100.00;97144.88;4958816;28;20077;-71
2022/11/08 09:33:39;;;;;;;5.78;1.20;;;13.00;99.90;;;12.33;100.00;97157.38;4975724;28;20524;-71
2022/11/08 09:36:09;;;;;;;2.53;0.90;;;13.20;99.90;;;12.48;100.00;97158.28;4962189;28;20243;-72
2022/11/08 09:38:36;;;;;;;2.80;0.95;;;13.30;99.90;;;12.47;100.00;97144.41;4966361;28;20094;-70
2022/11/08 09:41:44;;;;;;;2.78;1.10;;;13.30;99.90;;;12.66;100.00;97143.38;4961977;28;20047;-71
2022/11/08 09:44:53;;;;;;;4.40;1.25;;;13.30;99.90;;;12.63;100.00;97149.56;4962583;28;20172;-71
2022/11/08 09:47:25;;;;;;;2.03;0.65;;;13.50;99.90;;;12.67;100.00;97130.25;4960942;28;20055;-71
2022/11/08 09:50:15;;;;;;;6.05;1.08;;;13.60;99.90;;;12.78;100.00;97153.06;4960264;28;20055;-71
2022/11/08 09:52:53;;;;;;;2.65;0.90;;;13.60;99.90;;;12.81;100.00;97150.25;4960586;28;20519;-70
2022/11/08 09:55:42;;;;;;;1.63;0.85;;;13.70;99.90;;;12.93;100.00;97156.50;4961484;28;20065;-71
2022/11/08 09:58:30;;;;;;;2.40;0.70;;;13.80;99.90;;;12.98;100.00;97154.50;4975750;28;20118;-69
2022/11/08 10:00:58;;;;;;;3.03;0.80;;;13.90;99.90;;;13.04;100.00;97161.09;4978223;28;20066;-69
2022/11/08 10:03:25;;;;;;;1.75;0.80;;;14.00;99.90;;;13.07;100.00;97153.97;4963568;28;20051;-70
2022/11/08 10:06:21;;;;;;;2.40;0.70;;;14.00;99.90;;;13.16;100.00;97184.69;4978144;28;20050;-71
2022/11/08 10:09:03;;;;;;;1.00;0.50;;;14.10;99.90;;;13.36;100.00;97144.44;4959447;28;20058;-71
2022/11/08 10:12:05;;;;;;;2.03;0.70;;;14.20;99.90;;;13.31;100.00;97153.44;4961558;28;20047;-71
2022/11/08 10:14:46;;;;;;;3.15;0.90;;;14.30;99.90;;;13.53;100.00;97159.03;4969052;28;20344;-72
2022/11/08 10:17:32;;;;;;;1.67;0.75;;;;;;;13.59;100.00;97163.88;4968606;28;20070;-71
2022/11/08 10:20:29;;;;;;;1.73;0.70;;;14.50;99.90;;;13.62;100.00;97157.63;4969611;28;20051;-70
2022/11/08 10:23:22;;;;;;;4.47;0.90;;;14.70;99.90;;;13.76;100.00;97170.66;4967203;28;20069;-71
2022/11/08 10:26:05;;;;;;;6.93;0.70;;;14.80;99.90;;;13.72;100.00;97158.72;4964592;28;20051;-71
2022/11/08 10:28:39;;;;;;;1.98;0.70;;;14.80;99.90;;;13.75;100.00;97171.59;4983597;28;20050;-71
2022/11/08 10:31:10;;;;;;;1.83;0.80;;;14.90;99.90;;;13.84;100.00;97171.94;4967690;28;20069;-72
2022/11/08 10:33:48;;;;;;;3.38;0.90;;;15.00;99.90;;;13.98;100.00;97183.22;4967102;28;20124;-71
2022/11/08 10:36:30;;;;;;;2.28;0.80;;;15.10;99.90;;;14.17;100.00;97176.81;4965366;28;20142;-72
2022/11/08 10:39:23;;;;;;;6.65;0.80;;;15.30;99.90;;;14.19;100.00;97174.97;4981520;28;20058;-71
2022/11/08 10:42:22;;;;;;;3.50;0.60;;;15.40;99.90;;;14.24;100.00;97175.50;4982649;28;20402;-71
2022/11/08 10:44:49;;;;;;;2.97;0.80;;;15.40;99.90;;;14.42;100.00;97170.88;4966216;28;20086;-72
2022/11/08 10:47:25;;;;;;;1.48;0.63;;;15.60;99.90;;;14.13;100.00;97167.50;4967371;28;20059;-70
2022/11/08 10:49:53;;;;;;;3.40;0.98;;;15.50;99.90;;;14.27;100.00;97177.06;4967342;28;20054;-71
2022/11/08 10:52:39;;;;;;;2.20;0.63;;;15.60;99.90;;;14.28;100.00;97192.66;4967417;28;20103;-71
2022/11/08 10:55:21;;;;;;;2.33;0.70;;;15.60;99.90;;;14.21;100.00;97171.31;4969539;28;20066;-71